Decoded Metar for KDVP (SLAYTON in MN, USA) (IATA:DVP) | Meteo·Mobile Aviation Weather
aviador You're here:

KDVP Decoded Metar

SLAYTON in MN, USA
Report Time2018-09-23 13:59:00
UTC Time2018-09-23 14:50:00
Flight Rules vfr VFR
Wind170° at 12 kt
W.Decomp.*RWY 17: 12.0 kt HW 0.8 kt LCW
W.Rank170° ranks 8
Current wind is above 170° avg. (10.8)
Visibility9999 m
Phenomena:N/A
Clouds:N/A
Expected CloudBase > 2,000 ft AGL from Temp-Dew spread
CeilingNone
Temp14°C (ISA +2)
Dew Point09°C (72% RH)
AAT9.5°C
QNH1016 hPa
Density Alt1,946 ft
Elevation1,624 ft
Report Wrong Elevation
Raw Report
KDVP 231359Z AUTO 17012KT 10SM CLR 14/09 A2999 RMK AO2=

Extra information for KDVP:More info

Metar Taf Metar & Taf Last 4 Metars F.Rules Stats Wind Profile Meteogram Temp Stats Airport Information Weather charts Add Link Nearby VenuesMetar ALERT Operation Metar Decoded Social comments

AIRNAV info for KDVP